createdAt,value
2017-04-29T00:00:44.250Z,44.50
2017-04-29T00:03:11.230Z,44.50
2017-04-29T00:05:38.218Z,45.10
2017-04-29T00:08:05.242Z,44.50
2017-04-29T00:10:32.220Z,44.70
2017-04-29T00:12:59.236Z,44.90
2017-04-29T00:15:26.221Z,44.70
2017-04-29T00:17:53.231Z,44.90
2017-04-29T00:20:20.205Z,44.80
2017-04-29T00:22:47.218Z,45.00
2017-04-29T00:25:14.191Z,45.20
2017-04-29T00:27:41.214Z,44.80
2017-04-29T00:30:08.219Z,45.20
2017-04-29T00:32:35.189Z,45.00
2017-04-29T00:35:02.197Z,45.40
2017-04-29T00:37:29.171Z,45.10
2017-04-29T00:39:56.907Z,45.40
2017-04-29T00:42:23.889Z,45.90
2017-04-29T00:44:50.894Z,46.50
2017-04-29T00:47:17.884Z,45.90
2017-04-29T00:49:44.874Z,46.70
2017-04-29T00:52:11.885Z,46.80
2017-04-29T00:54:38.893Z,47.40
2017-04-29T00:57:05.880Z,47.40
2017-04-29T00:59:32.862Z,47.30
2017-04-29T01:01:59.867Z,47.90
2017-04-29T01:04:26.838Z,49.00
2017-04-29T01:06:53.838Z,50.20
2017-04-29T01:09:21.582Z,51.00
2017-04-29T01:11:48.570Z,51.30
2017-04-29T01:14:15.555Z,51.50
2017-04-29T01:16:42.541Z,52.00
2017-04-29T01:19:10.277Z,51.20
2017-04-29T01:21:37.249Z,51.70
2017-04-29T01:24:05.006Z,52.00
2017-04-29T01:26:32.726Z,51.80
2017-04-29T01:28:59.731Z,50.90
2017-04-29T01:31:27.446Z,51.40
2017-04-29T01:33:54.456Z,51.90
2017-04-29T01:36:21.453Z,50.90
2017-04-29T01:38:48.445Z,50.80
2017-04-29T01:41:15.430Z,51.10
2017-04-29T01:43:42.427Z,51.00
2017-04-29T01:46:09.427Z,50.50
2017-04-29T01:48:36.410Z,50.30
2017-04-29T01:51:04.178Z,50.40
2017-04-29T01:53:31.889Z,50.10
2017-04-29T01:55:58.926Z,50.10
2017-04-29T01:58:25.922Z,50.10
2017-04-29T02:00:52.933Z,50.50
2017-04-29T02:03:19.943Z,50.90
2017-04-29T02:05:46.931Z,50.90
2017-04-29T02:08:13.946Z,50.60
2017-04-29T02:10:40.930Z,50.60
2017-04-29T02:13:07.951Z,50.40
2017-04-29T02:15:34.922Z,50.70
2017-04-29T02:18:01.947Z,50.60
2017-04-29T02:20:28.947Z,50.30
2017-04-29T02:22:56.707Z,50.20
2017-04-29T02:25:24.417Z,50.10
2017-04-29T02:27:51.416Z,50.30
2017-04-29T02:30:19.134Z,50.10
2017-04-29T02:32:46.139Z,50.10
2017-04-29T02:35:13.854Z,50.30
2017-04-29T02:37:40.861Z,50.20
2017-04-29T02:40:07.860Z,50.30
2017-04-29T02:42:34.839Z,49.90
2017-04-29T02:45:02.581Z,49.50
2017-04-29T02:47:29.558Z,49.60
2017-04-29T02:49:56.584Z,49.50
2017-04-29T02:52:24.315Z,49.30
2017-04-29T02:54:51.318Z,49.60
2017-04-29T02:57:18.335Z,49.80
2017-04-29T02:59:45.311Z,50.10
2017-04-29T03:02:12.322Z,50.10
2017-04-29T03:04:39.290Z,50.10
2017-04-29T03:07:07.061Z,50.00
2017-04-29T03:09:34.051Z,50.30
2017-04-29T03:12:01.073Z,50.10
2017-04-29T03:14:28.067Z,50.10
2017-04-29T03:16:55.041Z,50.00
2017-04-29T03:19:22.788Z,50.10
2017-04-29T03:21:50.519Z,50.70
2017-04-29T03:24:17.524Z,50.10
2017-04-29T03:26:44.507Z,50.10
2017-04-29T03:29:11.509Z,49.90
2017-04-29T03:31:38.515Z,49.70
2017-04-29T03:34:05.530Z,49.80
2017-04-29T03:36:32.519Z,50.00
2017-04-29T03:38:59.506Z,50.30
2017-04-29T03:41:26.514Z,50.10
2017-04-29T03:43:53.485Z,50.00
2017-04-29T03:46:20.492Z,49.80
2017-04-29T03:48:47.471Z,49.60
2017-04-29T03:51:14.524Z,49.60
2017-04-29T03:53:41.503Z,49.80
2017-04-29T03:56:09.290Z,50.60
2017-04-29T03:58:36.265Z,50.80
2017-04-29T04:01:03.240Z,50.60
2017-04-29T04:03:30.260Z,49.80
2017-04-29T04:05:57.250Z,49.90
2017-04-29T04:08:24.262Z,49.80
2017-04-29T04:10:51.362Z,49.60
2017-04-29T04:13:18.414Z,49.80
2017-04-29T04:15:45.403Z,49.30
2017-04-29T04:18:12.401Z,49.60
2017-04-29T04:20:40.134Z,49.50
2017-04-29T04:23:07.189Z,49.70
2017-04-29T04:25:34.225Z,49.90
2017-04-29T04:28:01.227Z,50.00
2017-04-29T04:30:28.208Z,50.00
2017-04-29T04:32:55.318Z,50.00
2017-04-29T04:35:22.318Z,50.00
2017-04-29T04:37:49.294Z,50.20
2017-04-29T04:40:17.461Z,49.80
2017-04-29T04:42:45.303Z,49.90
2017-04-29T04:45:12.309Z,49.80
2017-04-29T04:47:39.314Z,49.60
2017-04-29T04:50:07.062Z,49.90
2017-04-29T04:52:34.030Z,49.80
2017-04-29T04:55:01.791Z,49.70
2017-04-29T04:57:29.034Z,49.60
2017-04-29T04:59:56.004Z,49.60
2017-04-29T05:02:23.021Z,49.60
2017-04-29T05:04:49.998Z,49.70
2017-04-29T05:07:17.062Z,49.80
2017-04-29T05:09:44.048Z,49.70
2017-04-29T05:12:11.022Z,49.70
2017-04-29T05:14:38.044Z,49.60
2017-04-29T05:17:05.016Z,49.50
2017-04-29T05:19:32.763Z,49.40
2017-04-29T05:21:59.738Z,49.40
2017-04-29T05:24:26.759Z,48.70
2017-04-29T05:26:53.732Z,49.30
2017-04-29T05:29:20.704Z,49.80
2017-04-29T05:31:47.705Z,49.40
2017-04-29T05:34:15.430Z,49.80
2017-04-29T05:36:42.434Z,49.90
2017-04-29T05:39:09.450Z,49.90
2017-04-29T05:41:36.456Z,49.90
2017-04-29T05:44:03.497Z,50.00
2017-04-29T05:46:30.477Z,49.60
2017-04-29T05:48:57.823Z,49.70
2017-04-29T05:51:24.819Z,49.90
2017-04-29T05:53:51.817Z,49.90
2017-04-29T05:56:18.840Z,50.20
2017-04-29T05:58:45.838Z,50.50
2017-04-29T06:01:13.547Z,50.50
2017-04-29T06:03:41.339Z,50.10
2017-04-29T06:06:08.329Z,49.90
2017-04-29T06:08:35.365Z,50.70
2017-04-29T06:11:02.352Z,51.00
2017-04-29T06:13:30.062Z,51.00
2017-04-29T06:15:57.078Z,50.80
2017-04-29T06:18:24.062Z,50.20
2017-04-29T06:20:51.055Z,50.30
2017-04-29T06:23:18.771Z,50.50
2017-04-29T06:25:45.792Z,50.80
2017-04-29T06:28:12.777Z,50.80
2017-04-29T06:30:39.758Z,51.00
2017-04-29T06:33:07.524Z,50.30
2017-04-29T06:35:35.246Z,50.00
2017-04-29T06:38:02.266Z,49.40
2017-04-29T06:40:29.262Z,49.30
2017-04-29T06:42:56.263Z,48.50
2017-04-29T06:45:23.263Z,48.00
2017-04-29T06:47:51.002Z,48.60
2017-04-29T06:50:17.998Z,48.20
2017-04-29T06:52:45.006Z,46.70
2017-04-29T06:55:12.031Z,46.00
2017-04-29T06:57:39.022Z,46.10
2017-04-29T07:00:06.774Z,45.80
2017-04-29T07:02:33.778Z,45.70
2017-04-29T07:05:00.782Z,45.70
2017-04-29T07:07:28.496Z,45.50
2017-04-29T07:09:55.521Z,45.80
2017-04-29T07:12:22.498Z,45.30
2017-04-29T07:14:49.491Z,45.90
2017-04-29T07:17:16.500Z,45.30
2017-04-29T07:19:43.497Z,44.00
2017-04-29T07:22:10.498Z,44.40
2017-04-29T07:24:37.474Z,44.30
2017-04-29T07:27:05.224Z,44.00
2017-04-29T07:29:32.945Z,44.10
2017-04-29T07:31:59.992Z,44.30
2017-04-29T07:34:26.983Z,43.30
2017-04-29T07:36:54.800Z,43.50
2017-04-29T07:39:21.776Z,43.80
2017-04-29T07:41:48.767Z,43.30
2017-04-29T07:44:15.873Z,43.90
2017-04-29T07:46:43.591Z,43.50
2017-04-29T07:49:10.585Z,43.60
2017-04-29T07:51:37.574Z,43.30
2017-04-29T07:54:04.599Z,42.80
2017-04-29T07:56:31.607Z,43.30
2017-04-29T07:58:58.609Z,42.30
2017-04-29T08:01:25.617Z,42.40
2017-04-29T08:03:52.632Z,42.30
2017-04-29T08:06:19.626Z,42.70
2017-04-29T08:08:46.627Z,41.70
2017-04-29T08:11:13.619Z,42.10
2017-04-29T08:13:40.690Z,41.70
2017-04-29T08:16:07.764Z,42.50
2017-04-29T08:18:35.509Z,42.40
2017-04-29T08:21:02.636Z,42.40
2017-04-29T08:23:29.614Z,42.30
2017-04-29T08:25:57.355Z,42.90
2017-04-29T08:28:24.361Z,42.00
2017-04-29T08:30:51.414Z,41.40
2017-04-29T08:33:18.417Z,41.50
2017-04-29T08:35:45.410Z,41.80
2017-04-29T08:38:12.407Z,41.60
2017-04-29T08:40:39.430Z,41.60
2017-04-29T08:43:07.174Z,41.50
2017-04-29T08:45:34.161Z,41.70
2017-04-29T08:48:01.172Z,41.60
2017-04-29T08:50:28.176Z,42.90
2017-04-29T08:52:55.206Z,43.00
2017-04-29T08:55:22.201Z,41.90
2017-04-29T08:57:49.194Z,42.80
2017-04-29T09:00:16.211Z,42.50
2017-04-29T09:02:43.211Z,42.70
2017-04-29T09:05:10.939Z,42.80
2017-04-29T09:07:37.941Z,42.40
2017-04-29T09:10:04.966Z,42.50
2017-04-29T09:12:31.951Z,42.70
2017-04-29T09:14:58.954Z,42.00
2017-04-29T09:17:26.673Z,42.20
2017-04-29T09:19:53.681Z,42.40
2017-04-29T09:22:20.659Z,41.70
2017-04-29T09:24:47.633Z,41.60
2017-04-29T09:27:14.628Z,41.70
2017-04-29T09:29:41.610Z,41.60
2017-04-29T09:32:08.613Z,41.70
2017-04-29T09:34:35.606Z,42.30
2017-04-29T09:37:02.642Z,41.40
2017-04-29T09:39:29.628Z,40.50
2017-04-29T09:41:56.610Z,41.30
2017-04-29T09:44:23.625Z,41.80
2017-04-29T09:46:50.802Z,41.10
2017-04-29T09:49:18.570Z,41.00
2017-04-29T09:51:45.542Z,41.00
2017-04-29T09:54:12.546Z,41.10
2017-04-29T09:56:40.289Z,40.10
2017-04-29T09:59:07.393Z,41.00
2017-04-29T10:01:34.493Z,39.70
2017-04-29T10:04:02.237Z,38.80
2017-04-29T10:06:29.273Z,38.10
2017-04-29T10:08:56.423Z,38.00
2017-04-29T10:11:23.478Z,37.70
2017-04-29T10:13:50.547Z,38.50
2017-04-29T10:16:17.568Z,38.80
2017-04-29T10:18:44.677Z,38.90
2017-04-29T10:21:11.664Z,40.60
2017-04-29T10:23:38.667Z,39.80
2017-04-29T10:26:05.828Z,38.90
2017-04-29T10:28:33.882Z,39.20
2017-04-29T10:31:00.879Z,38.70
2017-04-29T10:33:27.946Z,38.90
2017-04-29T10:35:54.945Z,39.70
2017-04-29T10:38:22.800Z,38.80
2017-04-29T10:40:49.854Z,37.50
2017-04-29T10:43:16.926Z,37.90
2017-04-29T10:45:43.991Z,36.90
2017-04-29T10:48:11.028Z,36.80
2017-04-29T10:50:38.149Z,37.20
2017-04-29T10:53:05.174Z,37.50
2017-04-29T10:55:32.214Z,37.60
2017-04-29T10:57:59.269Z,37.20
2017-04-29T11:00:26.276Z,37.10
2017-04-29T11:02:53.276Z,36.70
2017-04-29T11:05:20.255Z,36.20
2017-04-29T11:07:48.034Z,37.20
2017-04-29T11:10:15.022Z,37.70
2017-04-29T11:12:42.059Z,37.80
2017-04-29T11:15:09.079Z,36.10
2017-04-29T11:17:36.077Z,35.90
2017-04-29T11:20:03.060Z,35.70
2017-04-29T11:22:30.085Z,36.50
2017-04-29T11:24:57.818Z,37.20
2017-04-29T11:27:24.787Z,36.70
2017-04-29T11:29:52.522Z,36.90
2017-04-29T11:32:19.497Z,38.00
2017-04-29T11:34:47.234Z,38.60
2017-04-29T11:37:14.226Z,37.40
2017-04-29T11:39:41.233Z,36.10
2017-04-29T11:42:09.031Z,36.30
2017-04-29T11:44:36.035Z,36.20
2017-04-29T11:47:03.053Z,34.40
2017-04-29T11:49:30.021Z,36.00
2017-04-29T11:51:57.767Z,36.30
2017-04-29T11:54:25.485Z,36.30
2017-04-29T11:56:52.536Z,36.30
2017-04-29T11:59:19.570Z,36.00
2017-04-29T12:01:47.294Z,36.80
2017-04-29T12:04:14.285Z,36.60
2017-04-29T12:06:41.291Z,37.10
2017-04-29T12:09:08.310Z,36.20
2017-04-29T12:11:35.292Z,36.00
2017-04-29T12:14:03.030Z,36.20
2017-04-29T12:16:30.007Z,36.00
2017-04-29T12:18:57.759Z,36.70
2017-04-29T12:21:24.741Z,37.10
2017-04-29T12:23:51.715Z,36.80
2017-04-29T12:26:19.451Z,37.10
2017-04-29T12:28:46.418Z,36.90
2017-04-29T12:31:13.429Z,37.20
2017-04-29T12:33:40.411Z,36.80
2017-04-29T12:36:07.383Z,35.80
2017-04-29T12:38:35.155Z,36.10
2017-04-29T12:41:02.871Z,35.90
2017-04-29T12:43:29.865Z,35.40
2017-04-29T12:45:56.832Z,35.80
2017-04-29T12:48:23.846Z,35.90
2017-04-29T12:50:51.440Z,35.50
2017-04-29T12:53:18.435Z,35.90
2017-04-29T12:55:45.438Z,36.50
2017-04-29T12:58:13.142Z,37.00
2017-04-29T13:00:41.038Z,36.90
2017-04-29T13:03:09.019Z,37.70
2017-04-29T13:05:36.216Z,36.70
2017-04-29T13:08:04.049Z,35.90
2017-04-29T13:10:31.176Z,36.10
2017-04-29T13:12:58.998Z,37.00
2017-04-29T13:15:26.155Z,36.80
2017-04-29T13:17:53.361Z,36.40
2017-04-29T13:20:20.509Z,35.90
2017-04-29T13:22:47.490Z,35.20
2017-04-29T13:25:14.466Z,33.90
2017-04-29T13:27:41.458Z,34.00
2017-04-29T13:30:08.453Z,34.60
2017-04-29T13:32:35.458Z,34.30
2017-04-29T13:35:03.185Z,34.60
2017-04-29T13:37:30.207Z,35.10
2017-04-29T13:39:57.187Z,34.70
2017-04-29T13:42:24.202Z,34.80
2017-04-29T13:44:51.939Z,35.10
2017-04-29T13:47:19.656Z,34.90
2017-04-29T13:49:46.662Z,34.70
2017-04-29T13:52:13.651Z,34.50
2017-04-29T13:54:40.678Z,34.10
2017-04-29T13:57:07.677Z,35.20
2017-04-29T13:59:34.693Z,34.00
2017-04-29T14:02:01.697Z,34.60
2017-04-29T14:04:29.416Z,35.60
2017-04-29T14:06:56.436Z,35.20
2017-04-29T14:09:24.171Z,35.00
2017-04-29T14:11:51.157Z,35.10
2017-04-29T14:14:18.167Z,34.70
2017-04-29T14:16:45.142Z,34.80
2017-04-29T14:19:12.132Z,34.40
2017-04-29T14:21:39.864Z,34.60
2017-04-29T14:24:06.870Z,34.60
2017-04-29T14:26:34.588Z,34.80
2017-04-29T14:29:01.599Z,34.20
2017-04-29T14:31:29.420Z,34.60
2017-04-29T14:33:56.485Z,34.80
2017-04-29T14:36:23.604Z,34.80
2017-04-29T14:38:51.458Z,35.70
2017-04-29T14:41:18.615Z,35.10
2017-04-29T14:43:46.876Z,35.00
2017-04-29T14:46:13.969Z,35.00
2017-04-29T14:48:40.965Z,35.10
2017-04-29T14:51:07.976Z,35.00
2017-04-29T14:53:35.410Z,35.60
2017-04-29T14:56:02.405Z,35.10
2017-04-29T14:58:29.419Z,34.50
2017-04-29T15:00:57.135Z,34.60
2017-04-29T15:03:24.139Z,34.80
2017-04-29T15:05:51.139Z,34.90
2017-04-29T15:08:18.154Z,34.80
2017-04-29T15:10:45.125Z,34.30
2017-04-29T15:13:12.854Z,33.80
2017-04-29T15:15:39.870Z,33.70
2017-04-29T15:18:06.855Z,33.80
2017-04-29T15:20:33.854Z,33.70
2017-04-29T15:25:34.434Z,33.40
2017-04-29T15:28:01.422Z,33.20
2017-04-29T15:30:28.408Z,33.90
2017-04-29T15:32:55.426Z,32.80
2017-04-29T15:35:22.402Z,32.40
2017-04-29T15:37:49.405Z,32.20
2017-04-29T15:40:17.147Z,31.90
2017-04-29T15:42:44.142Z,32.00
2017-04-29T15:45:11.154Z,31.40
2017-04-29T15:47:38.890Z,31.80
2017-04-29T15:50:05.867Z,31.70
2017-04-29T15:52:32.914Z,31.50
2017-04-29T15:54:59.910Z,31.70
2017-04-29T15:57:26.897Z,32.40
2017-04-29T15:59:53.886Z,32.40
2017-04-29T16:02:20.867Z,32.00
2017-04-29T16:04:47.862Z,31.70
2017-04-29T16:07:15.574Z,31.80
2017-04-29T16:09:42.589Z,32.10
2017-04-29T16:12:09.575Z,32.40
2017-04-29T16:14:36.566Z,32.80
2017-04-29T16:17:03.575Z,33.10
2017-04-29T16:19:30.554Z,34.00
2017-04-29T16:21:57.562Z,33.20
2017-04-29T16:24:24.543Z,33.20
2017-04-29T16:26:52.328Z,33.90
2017-04-29T16:29:19.306Z,33.10
2017-04-29T16:31:46.286Z,33.30
2017-04-29T16:34:13.315Z,33.70
2017-04-29T16:36:40.301Z,33.50
2017-04-29T16:39:07.307Z,33.50
2017-04-29T16:41:34.290Z,34.40
2017-04-29T16:44:01.293Z,34.30
2017-04-29T16:46:28.274Z,34.20
2017-04-29T16:48:55.291Z,34.00
2017-04-29T16:51:22.274Z,34.40
2017-04-29T16:53:49.263Z,35.00
2017-04-29T16:56:16.282Z,35.60
2017-04-29T16:58:43.996Z,35.00
2017-04-29T17:01:11.009Z,34.70
2017-04-29T17:03:37.990Z,34.50
2017-04-29T17:06:04.990Z,34.50
2017-04-29T17:08:31.971Z,34.40
2017-04-29T17:10:58.934Z,34.30
2017-04-29T17:13:25.944Z,33.70
2017-04-29T17:15:53.669Z,33.60
2017-04-29T17:20:55.267Z,33.30
2017-04-29T17:23:22.281Z,33.20
2017-04-29T17:25:49.262Z,33.60
2017-04-29T17:28:16.291Z,34.00
2017-04-29T17:30:43.268Z,34.00
2017-04-29T17:33:10.243Z,34.10
2017-04-29T17:35:37.250Z,34.60
2017-04-29T17:38:04.231Z,34.80
2017-04-29T17:40:31.975Z,34.80
2017-04-29T17:42:58.949Z,35.10
2017-04-29T17:45:25.961Z,35.10
2017-04-29T17:47:52.970Z,35.30
2017-04-29T17:50:19.959Z,35.80
2017-04-29T17:52:46.966Z,36.00
2017-04-29T17:55:13.964Z,36.20
2017-04-29T17:57:41.700Z,36.70
2017-04-29T18:00:08.695Z,37.20
2017-04-29T18:02:35.708Z,37.50
2017-04-29T18:05:03.423Z,38.00
2017-04-29T18:07:30.442Z,37.60
2017-04-29T18:09:57.422Z,37.70
2017-04-29T18:12:24.456Z,37.70
2017-04-29T18:14:51.453Z,37.60
2017-04-29T18:17:18.485Z,37.30
2017-04-29T18:19:45.496Z,37.70
2017-04-29T18:22:12.474Z,37.60
2017-04-29T18:24:39.490Z,37.50
2017-04-29T18:27:06.486Z,37.50
2017-04-29T18:29:34.728Z,37.30
2017-04-29T18:32:01.874Z,37.50
2017-04-29T18:34:28.862Z,37.80
2017-04-29T18:36:56.604Z,37.80
2017-04-29T18:39:24.343Z,37.80
2017-04-29T18:41:51.403Z,37.60
2017-04-29T18:44:18.461Z,37.40
2017-04-29T18:46:45.492Z,37.30
2017-04-29T18:49:13.289Z,37.30
2017-04-29T18:51:40.362Z,37.30
2017-04-29T18:54:07.477Z,37.40
2017-04-29T18:56:34.640Z,37.60
2017-04-29T18:59:00.926Z,37.60
2017-04-29T19:01:27.911Z,37.50
2017-04-29T19:03:55.657Z,38.10
2017-04-29T19:06:23.417Z,38.20
2017-04-29T19:08:50.550Z,38.20
2017-04-29T19:11:17.524Z,38.40
2017-04-29T19:13:44.565Z,38.40
2017-04-29T19:16:11.562Z,38.60
2017-04-29T19:18:38.533Z,38.80
2017-04-29T19:21:05.539Z,39.40
2017-04-29T19:23:32.573Z,38.90
2017-04-29T19:25:59.534Z,38.90
2017-04-29T19:28:26.718Z,38.90
2017-04-29T19:30:53.781Z,39.00
2017-04-29T19:33:21.560Z,39.70
2017-04-29T19:35:48.860Z,39.00
2017-04-29T19:38:15.988Z,39.20
2017-04-29T19:40:43.026Z,39.20
2017-04-29T19:43:10.114Z,39.50
2017-04-29T19:45:37.141Z,39.40
2017-04-29T19:48:04.870Z,39.20
2017-04-29T19:50:31.957Z,39.30
2017-04-29T19:52:59.747Z,39.50
2017-04-29T19:55:26.836Z,39.50
2017-04-29T19:57:53.826Z,39.50
2017-04-29T20:00:20.817Z,39.60
2017-04-29T20:02:47.822Z,39.70
2017-04-29T20:05:15.553Z,39.70
2017-04-29T20:07:42.738Z,39.80
2017-04-29T20:10:09.750Z,40.00
2017-04-29T20:12:36.764Z,40.00
2017-04-29T20:15:03.779Z,40.10
2017-04-29T20:17:30.893Z,40.20
2017-04-29T20:19:58.653Z,40.20
2017-04-29T20:22:26.375Z,40.00
2017-04-29T20:24:53.375Z,40.10
2017-04-29T20:27:20.366Z,40.20
2017-04-29T20:29:47.402Z,40.10
2017-04-29T20:32:14.370Z,40.20
2017-04-29T20:34:42.084Z,40.20
2017-04-29T20:37:09.093Z,40.30
2017-04-29T20:39:36.070Z,39.50
2017-04-29T20:42:03.065Z,39.60
2017-04-29T20:44:30.789Z,40.20
2017-04-29T20:46:57.802Z,40.00
2017-04-29T20:49:24.778Z,40.20
2017-04-29T20:51:51.753Z,40.30
2017-04-29T20:54:18.758Z,40.50
2017-04-29T20:56:45.778Z,41.30
2017-04-29T20:59:12.778Z,40.90
2017-04-29T21:01:40.488Z,41.00
2017-04-29T21:04:07.492Z,41.30
2017-04-29T21:06:34.464Z,41.80
2017-04-29T21:09:02.260Z,41.80
2017-04-29T21:11:29.234Z,42.00
2017-04-29T21:13:56.217Z,42.10
2017-04-29T21:16:23.237Z,42.20
2017-04-29T21:18:50.241Z,42.00
2017-04-29T21:21:17.263Z,42.60
2017-04-29T21:23:44.972Z,42.90
2017-04-29T21:26:11.983Z,43.00
2017-04-29T21:28:38.957Z,42.90
2017-04-29T21:31:05.933Z,42.90
2017-04-29T21:33:33.291Z,42.90
2017-04-29T21:36:00.268Z,43.00
2017-04-29T21:38:28.018Z,43.10
2017-04-29T21:40:54.997Z,43.30
2017-04-29T21:43:21.994Z,43.40
2017-04-29T21:45:49.713Z,43.40
2017-04-29T21:48:16.725Z,43.50
2017-04-29T21:50:43.722Z,44.20
2017-04-29T21:53:10.701Z,43.80
2017-04-29T21:55:37.730Z,43.70
2017-04-29T21:58:04.717Z,43.90
2017-04-29T22:00:32.479Z,44.20
2017-04-29T22:02:59.459Z,44.30
2017-04-29T22:05:26.507Z,45.00
2017-04-29T22:07:53.494Z,44.50
2017-04-29T22:10:20.493Z,45.20
2017-04-29T22:12:48.225Z,45.30
2017-04-29T22:15:15.215Z,45.20
2017-04-29T22:17:42.214Z,45.10
2017-04-29T22:20:09.209Z,45.10
2017-04-29T22:22:36.198Z,45.10
2017-04-29T22:25:03.925Z,45.30
2017-04-29T22:27:30.937Z,45.30
2017-04-29T22:29:57.921Z,45.60
2017-04-29T22:32:24.896Z,45.70
2017-04-29T22:34:51.901Z,45.80
2017-04-29T22:37:18.869Z,45.60
2017-04-29T22:39:45.868Z,45.70
2017-04-29T22:42:12.842Z,46.10
2017-04-29T22:44:39.867Z,46.00
2017-04-29T22:47:06.833Z,46.20
2017-04-29T22:49:34.557Z,46.50
2017-04-29T22:52:01.580Z,46.40
2017-04-29T22:54:29.314Z,46.40
2017-04-29T22:56:56.345Z,46.40
2017-04-29T22:59:24.091Z,46.40
2017-04-29T23:01:51.109Z,46.40
2017-04-29T23:04:18.106Z,46.50
2017-04-29T23:06:45.826Z,46.20
2017-04-29T23:09:12.839Z,46.10
2017-04-29T23:11:39.822Z,46.20
2017-04-29T23:14:06.814Z,46.20
2017-04-29T23:16:34.536Z,46.40
2017-04-29T23:19:02.298Z,46.50
2017-04-29T23:21:29.272Z,46.70
2017-04-29T23:23:56.269Z,46.90
2017-04-29T23:26:23.274Z,47.20
2017-04-29T23:28:50.293Z,47.30
2017-04-29T23:31:18.010Z,47.00
2017-04-29T23:33:44.989Z,46.90
2017-04-29T23:36:11.989Z,46.60
2017-04-29T23:38:39.923Z,46.60
2017-04-29T23:41:06.917Z,46.80
2017-04-29T23:43:34.642Z,46.90
2017-04-29T23:46:01.658Z,46.70
2017-04-29T23:48:29.381Z,46.40
2017-04-29T23:50:56.403Z,46.60
2017-04-29T23:53:24.147Z,46.90
2017-04-29T23:55:51.170Z,46.90
2017-04-29T23:58:18.177Z,47.20
